sensor_id;sensor_type;location;lat;lon;timestamp;temperature;humidity
8655;DHT22;13500;52.514;13.462;2022-10-16T00:01:08;14.60;99.90
8655;DHT22;13500;52.514;13.462;2022-10-16T00:03:38;14.70;99.90
8655;DHT22;13500;52.514;13.462;2022-10-16T00:06:09;14.70;99.90
8655;DHT22;13500;52.514;13.462;2022-10-16T00:08:38;14.80;99.90
8655;DHT22;13500;52.514;13.462;2022-10-16T00:11:07;14.80;99.90
8655;DHT22;13500;52.514;13.462;2022-10-16T00:13:37;14.80;99.90
8655;DHT22;13500;52.514;13.462;2022-10-16T00:16:05;14.90;99.90
8655;DHT22;13500;52.514;13.462;2022-10-16T00:18:34;15.00;99.90
8655;DHT22;13500;52.514;13.462;2022-10-16T00:21:04;15.00;99.90
8655;DHT22;13500;52.514;13.462;2022-10-16T00:23:53;15.00;99.90
8655;DHT22;13500;52.514;13.462;2022-10-16T00:26:22;15.10;99.90
8655;DHT22;13500;52.514;13.462;2022-10-16T00:28:51;15.10;99.90
8655;DHT22;13500;52.514;13.462;2022-10-16T00:31:21;15.20;99.90
8655;DHT22;13500;52.514;13.462;2022-10-16T00:33:49;15.20;99.90
8655;DHT22;13500;52.514;13.462;2022-10-16T00:36:19;15.20;99.90
8655;DHT22;13500;52.514;13.462;2022-10-16T00:38:50;15.20;99.90
8655;DHT22;13500;52.514;13.462;2022-10-16T00:41:22;15.20;99.90
8655;DHT22;13500;52.514;13.462;2022-10-16T00:43:52;15.30;99.90
8655;DHT22;13500;52.514;13.462;2022-10-16T00:46:22;15.30;99.90
8655;DHT22;13500;52.514;13.462;2022-10-16T00:48:52;15.30;99.90
8655;DHT22;13500;52.514;13.462;2022-10-16T00:51:25;15.40;99.90
8655;DHT22;13500;52.514;13.462;2022-10-16T00:53:55;15.30;99.90
8655;DHT22;13500;52.514;13.462;2022-10-16T00:56:24;15.30;99.90
8655;DHT22;13500;52.514;13.462;2022-10-16T00:58:53;15.40;99.90
8655;DHT22;13500;52.514;13.462;2022-10-16T01:01:21;15.30;99.90
8655;DHT22;13500;52.514;13.462;2022-10-16T01:03:49;15.40;99.90
8655;DHT22;13500;52.514;13.462;2022-10-16T01:06:23;15.40;99.90
8655;DHT22;13500;52.514;13.462;2022-10-16T01:09:03;15.40;99.90
8655;DHT22;13500;52.514;13.462;2022-10-16T01:11:39;15.40;99.90
8655;DHT22;13500;52.514;13.462;2022-10-16T01:14:17;15.40;99.90
8655;DHT22;13500;52.514;13.462;2022-10-16T01:16:50;15.40;99.90
8655;DHT22;13500;52.514;13.462;2022-10-16T01:19:31;15.30;99.90
8655;DHT22;13500;52.514;13.462;2022-10-16T01:22:05;15.30;99.90
8655;DHT22;13500;52.514;13.462;2022-10-16T01:24:39;15.30;99.90
8655;DHT22;13500;52.514;13.462;2022-10-16T01:27:12;15.30;99.90
8655;DHT22;13500;52.514;13.462;2022-10-16T01:29:48;15.30;99.90
8655;DHT22;13500;52.514;13.462;2022-10-16T01:32:22;15.40;99.90
8655;DHT22;13500;52.514;13.462;2022-10-16T01:34:53;15.30;99.90
8655;DHT22;13500;52.514;13.462;2022-10-16T01:37:32;15.30;99.90
8655;DHT22;13500;52.514;13.462;2022-10-16T01:40:04;15.20;99.90
8655;DHT22;13500;52.514;13.462;2022-10-16T01:42:37;15.30;99.90
8655;DHT22;13500;52.514;13.462;2022-10-16T01:45:07;15.30;99.90
8655;DHT22;13500;52.514;13.462;2022-10-16T01:47:38;15.30;99.90
8655;DHT22;13500;52.514;13.462;2022-10-16T01:50:08;15.30;99.90
8655;DHT22;13500;52.514;13.462;2022-10-16T01:52:39;15.30;99.90
8655;DHT22;13500;52.514;13.462;2022-10-16T01:55:10;15.30;99.90
8655;DHT22;13500;52.514;13.462;2022-10-16T01:57:45;15.30;99.90
8655;DHT22;13500;52.514;13.462;2022-10-16T02:00:16;15.30;99.90
8655;DHT22;13500;52.514;13.462;2022-10-16T02:02:48;15.30;99.90
8655;DHT22;13500;52.514;13.462;2022-10-16T02:05:21;15.30;99.90
8655;DHT22;13500;52.514;13.462;2022-10-16T02:07:52;15.40;99.90
8655;DHT22;13500;52.514;13.462;2022-10-16T02:10:20;15.40;99.90
8655;DHT22;13500;52.514;13.462;2022-10-16T02:12:55;15.40;99.90
8655;DHT22;13500;52.514;13.462;2022-10-16T02:15:24;15.40;99.90
8655;DHT22;13500;52.514;13.462;2022-10-16T02:17:51;15.40;99.90
8655;DHT22;13500;52.514;13.462;2022-10-16T02:20:25;15.40;99.90
8655;DHT22;13500;52.514;13.462;2022-10-16T02:22:54;15.50;99.90
8655;DHT22;13500;52.514;13.462;2022-10-16T02:25:26;15.60;99.90
8655;DHT22;13500;52.514;13.462;2022-10-16T02:28:02;15.50;99.90
8655;DHT22;13500;52.514;13.462;2022-10-16T02:30:34;15.60;99.90
8655;DHT22;13500;52.514;13.462;2022-10-16T02:33:06;15.60;99.90
8655;DHT22;13500;52.514;13.462;2022-10-16T02:35:36;15.60;99.90
8655;DHT22;13500;52.514;13.462;2022-10-16T02:38:04;15.60;99.90
8655;DHT22;13500;52.514;13.462;2022-10-16T02:40:34;15.60;99.90
8655;DHT22;13500;52.514;13.462;2022-10-16T02:43:04;15.60;99.90
8655;DHT22;13500;52.514;13.462;2022-10-16T02:45:32;15.60;99.90
8655;DHT22;13500;52.514;13.462;2022-10-16T02:48:00;15.60;99.90
8655;DHT22;13500;52.514;13.462;2022-10-16T02:50:28;15.60;99.90
8655;DHT22;13500;52.514;13.462;2022-10-16T02:52:56;15.70;99.90
8655;DHT22;13500;52.514;13.462;2022-10-16T02:55:24;15.70;99.90
8655;DHT22;13500;52.514;13.462;2022-10-16T02:57:52;15.60;99.90
8655;DHT22;13500;52.514;13.462;2022-10-16T03:00:22;15.70;99.90
8655;DHT22;13500;52.514;13.462;2022-10-16T03:02:50;15.70;99.90
8655;DHT22;13500;52.514;13.462;2022-10-16T03:05:18;15.60;99.90
8655;DHT22;13500;52.514;13.462;2022-10-16T03:07:45;15.60;99.90
8655;DHT22;13500;52.514;13.462;2022-10-16T03:10:14;15.60;99.90
8655;DHT22;13500;52.514;13.462;2022-10-16T03:12:42;15.60;99.90
8655;DHT22;13500;52.514;13.462;2022-10-16T03:15:10;15.50;99.90
8655;DHT22;13500;52.514;13.462;2022-10-16T03:17:39;15.60;99.90
8655;DHT22;13500;52.514;13.462;2022-10-16T03:20:07;15.60;99.90
8655;DHT22;13500;52.514;13.462;2022-10-16T03:22:35;15.60;99.90
8655;DHT22;13500;52.514;13.462;2022-10-16T03:25:04;15.60;99.90
8655;DHT22;13500;52.514;13.462;2022-10-16T03:27:32;15.60;99.90
8655;DHT22;13500;52.514;13.462;2022-10-16T03:30:00;15.50;99.90
8655;DHT22;13500;52.514;13.462;2022-10-16T03:32:29;15.50;99.90
8655;DHT22;13500;52.514;13.462;2022-10-16T03:34:58;15.50;99.90
8655;DHT22;13500;52.514;13.462;2022-10-16T03:37:26;15.40;99.90
8655;DHT22;13500;52.514;13.462;2022-10-16T03:39:55;15.40;99.90
8655;DHT22;13500;52.514;13.462;2022-10-16T03:42:25;15.40;99.90
8655;DHT22;13500;52.514;13.462;2022-10-16T03:44:53;15.40;99.90
8655;DHT22;13500;52.514;13.462;2022-10-16T03:47:21;15.30;99.90
8655;DHT22;13500;52.514;13.462;2022-10-16T03:49:50;15.30;99.90
8655;DHT22;13500;52.514;13.462;2022-10-16T03:52:20;15.30;99.90
8655;DHT22;13500;52.514;13.462;2022-10-16T03:54:48;15.30;99.90
8655;DHT22;13500;52.514;13.462;2022-10-16T03:57:16;15.30;99.90
8655;DHT22;13500;52.514;13.462;2022-10-16T03:59:44;15.30;99.90
8655;DHT22;13500;52.514;13.462;2022-10-16T04:02:12;15.20;99.90
8655;DHT22;13500;52.514;13.462;2022-10-16T04:04:40;15.20;99.90
8655;DHT22;13500;52.514;13.462;2022-10-16T04:07:08;15.20;99.90
8655;DHT22;13500;52.514;13.462;2022-10-16T04:09:37;15.20;99.90
8655;DHT22;13500;52.514;13.462;2022-10-16T04:12:05;15.20;99.90
8655;DHT22;13500;52.514;13.462;2022-10-16T04:14:33;15.20;99.90
8655;DHT22;13500;52.514;13.462;2022-10-16T04:17:01;15.20;99.90
8655;DHT22;13500;52.514;13.462;2022-10-16T04:19:29;15.10;99.90
8655;DHT22;13500;52.514;13.462;2022-10-16T04:21:57;15.10;99.90
8655;DHT22;13500;52.514;13.462;2022-10-16T04:24:25;15.10;99.90
8655;DHT22;13500;52.514;13.462;2022-10-16T04:26:54;15.00;99.90
8655;DHT22;13500;52.514;13.462;2022-10-16T04:29:22;15.10;99.90
8655;DHT22;13500;52.514;13.462;2022-10-16T04:31:50;15.00;99.90
8655;DHT22;13500;52.514;13.462;2022-10-16T04:34:18;15.00;99.90
8655;DHT22;13500;52.514;13.462;2022-10-16T04:36:47;15.00;99.90
8655;DHT22;13500;52.514;13.462;2022-10-16T04:39:15;15.00;99.90
8655;DHT22;13500;52.514;13.462;2022-10-16T04:41:42;14.90;99.90
8655;DHT22;13500;52.514;13.462;2022-10-16T04:44:12;14.90;99.90
8655;DHT22;13500;52.514;13.462;2022-10-16T04:46:40;14.80;99.90
8655;DHT22;13500;52.514;13.462;2022-10-16T04:49:08;14.80;99.90
8655;DHT22;13500;52.514;13.462;2022-10-16T04:51:36;14.80;99.90
8655;DHT22;13500;52.514;13.462;2022-10-16T04:54:04;14.80;99.90
8655;DHT22;13500;52.514;13.462;2022-10-16T04:56:32;14.70;99.90
8655;DHT22;13500;52.514;13.462;2022-10-16T04:59:06;14.60;99.90
8655;DHT22;13500;52.514;13.462;2022-10-16T05:01:35;14.60;99.90
8655;DHT22;13500;52.514;13.462;2022-10-16T05:04:03;14.60;99.90
8655;DHT22;13500;52.514;13.462;2022-10-16T05:06:32;14.50;99.90
8655;DHT22;13500;52.514;13.462;2022-10-16T05:08:59;14.50;99.90
8655;DHT22;13500;52.514;13.462;2022-10-16T05:11:27;14.50;99.90
8655;DHT22;13500;52.514;13.462;2022-10-16T05:13:55;14.40;99.90
8655;DHT22;13500;52.514;13.462;2022-10-16T05:16:23;14.40;99.90
8655;DHT22;13500;52.514;13.462;2022-10-16T05:18:53;14.40;99.90
8655;DHT22;13500;52.514;13.462;2022-10-16T05:21:35;14.40;99.90
8655;DHT22;13500;52.514;13.462;2022-10-16T05:24:04;14.40;99.90
8655;DHT22;13500;52.514;13.462;2022-10-16T05:26:31;14.40;99.90
8655;DHT22;13500;52.514;13.462;2022-10-16T05:29:00;14.40;99.90
8655;DHT22;13500;52.514;13.462;2022-10-16T05:31:28;14.40;99.90
8655;DHT22;13500;52.514;13.462;2022-10-16T05:33:59;14.40;99.90
8655;DHT22;13500;52.514;13.462;2022-10-16T05:36:28;14.40;99.90
8655;DHT22;13500;52.514;13.462;2022-10-16T05:38:55;14.40;99.90
8655;DHT22;13500;52.514;13.462;2022-10-16T05:41:23;14.40;99.90
8655;DHT22;13500;52.514;13.462;2022-10-16T05:43:53;14.40;99.90
8655;DHT22;13500;52.514;13.462;2022-10-16T05:46:21;14.40;99.90
8655;DHT22;13500;52.514;13.462;2022-10-16T05:48:51;14.30;99.90
8655;DHT22;13500;52.514;13.462;2022-10-16T05:51:20;14.30;99.90
8655;DHT22;13500;52.514;13.462;2022-10-16T05:53:48;14.40;99.90
8655;DHT22;13500;52.514;13.462;2022-10-16T05:56:16;14.40;99.90
8655;DHT22;13500;52.514;13.462;2022-10-16T05:58:44;14.40;99.90
8655;DHT22;13500;52.514;13.462;2022-10-16T06:01:14;14.40;99.90
8655;DHT22;13500;52.514;13.462;2022-10-16T06:03:42;14.40;99.90
8655;DHT22;13500;52.514;13.462;2022-10-16T06:06:12;14.50;99.90
8655;DHT22;13500;52.514;13.462;2022-10-16T06:08:42;14.50;99.90
8655;DHT22;13500;52.514;13.462;2022-10-16T06:11:13;14.50;99.90
8655;DHT22;13500;52.514;13.462;2022-10-16T06:13:41;14.50;99.90
8655;DHT22;13500;52.514;13.462;2022-10-16T06:16:09;14.60;99.90
8655;DHT22;13500;52.514;13.462;2022-10-16T06:18:38;14.60;99.90
8655;DHT22;13500;52.514;13.462;2022-10-16T06:21:11;14.60;99.90
8655;DHT22;13500;52.514;13.462;2022-10-16T06:23:40;14.70;99.90
8655;DHT22;13500;52.514;13.462;2022-10-16T06:26:10;14.80;99.90
8655;DHT22;13500;52.514;13.462;2022-10-16T06:28:39;14.80;99.90
8655;DHT22;13500;52.514;13.462;2022-10-16T06:31:09;14.80;99.90
8655;DHT22;13500;52.514;13.462;2022-10-16T06:33:38;14.90;99.90
8655;DHT22;13500;52.514;13.462;2022-10-16T06:36:08;14.90;99.90
8655;DHT22;13500;52.514;13.462;2022-10-16T06:38:37;14.90;99.90
8655;DHT22;13500;52.514;13.462;2022-10-16T06:41:07;15.00;99.90
8655;DHT22;13500;52.514;13.462;2022-10-16T06:43:35;15.00;99.90
8655;DHT22;13500;52.514;13.462;2022-10-16T06:46:04;15.10;99.90
8655;DHT22;13500;52.514;13.462;2022-10-16T06:48:34;15.20;99.90
8655;DHT22;13500;52.514;13.462;2022-10-16T06:51:04;15.20;99.90
8655;DHT22;13500;52.514;13.462;2022-10-16T06:53:34;15.20;99.90
8655;DHT22;13500;52.514;13.462;2022-10-16T06:56:18;15.20;99.90
8655;DHT22;13500;52.514;13.462;2022-10-16T06:58:47;15.10;99.90
8655;DHT22;13500;52.514;13.462;2022-10-16T07:01:16;15.10;99.90
8655;DHT22;13500;52.514;13.462;2022-10-16T07:03:45;15.10;99.90
8655;DHT22;13500;52.514;13.462;2022-10-16T07:06:16;15.10;99.90
8655;DHT22;13500;52.514;13.462;2022-10-16T07:08:45;15.20;99.90
8655;DHT22;13500;52.514;13.462;2022-10-16T07:11:16;15.30;99.90
8655;DHT22;13500;52.514;13.462;2022-10-16T07:13:45;15.50;99.90
8655;DHT22;13500;52.514;13.462;2022-10-16T07:16:22;15.80;99.90
8655;DHT22;13500;52.514;13.462;2022-10-16T07:18:50;16.00;99.90
8655;DHT22;13500;52.514;13.462;2022-10-16T07:21:25;16.30;99.90
8655;DHT22;13500;52.514;13.462;2022-10-16T07:23:55;16.40;99.90
8655;DHT22;13500;52.514;13.462;2022-10-16T07:26:26;16.60;99.90
8655;DHT22;13500;52.514;13.462;2022-10-16T07:28:55;16.60;99.90
8655;DHT22;13500;52.514;13.462;2022-10-16T07:31:23;16.60;99.90
8655;DHT22;13500;52.514;13.462;2022-10-16T07:33:51;16.70;99.90
8655;DHT22;13500;52.514;13.462;2022-10-16T07:36:20;16.70;99.90
8655;DHT22;13500;52.514;13.462;2022-10-16T07:38:48;16.80;99.90
8655;DHT22;13500;52.514;13.462;2022-10-16T07:41:21;16.80;99.90
8655;DHT22;13500;52.514;13.462;2022-10-16T07:43:51;17.00;99.90
8655;DHT22;13500;52.514;13.462;2022-10-16T07:46:20;17.30;99.90
8655;DHT22;13500;52.514;13.462;2022-10-16T07:48:48;17.20;99.90
8655;DHT22;13500;52.514;13.462;2022-10-16T07:51:18;17.30;99.90
8655;DHT22;13500;52.514;13.462;2022-10-16T07:53:46;17.40;99.90
8655;DHT22;13500;52.514;13.462;2022-10-16T07:56:15;17.30;99.90
8655;DHT22;13500;52.514;13.462;2022-10-16T07:58:44;17.20;99.90
8655;DHT22;13500;52.514;13.462;2022-10-16T08:01:14;17.10;99.90
8655;DHT22;13500;52.514;13.462;2022-10-16T08:03:43;17.10;99.90
8655;DHT22;13500;52.514;13.462;2022-10-16T08:06:11;17.10;99.90
8655;DHT22;13500;52.514;13.462;2022-10-16T08:08:40;17.00;99.90
8655;DHT22;13500;52.514;13.462;2022-10-16T08:11:08;17.10;99.90
8655;DHT22;13500;52.514;13.462;2022-10-16T08:13:36;17.10;99.90
8655;DHT22;13500;52.514;13.462;2022-10-16T08:16:05;17.20;99.90
8655;DHT22;13500;52.514;13.462;2022-10-16T08:18:36;17.20;99.90
8655;DHT22;13500;52.514;13.462;2022-10-16T08:21:08;17.20;99.90
8655;DHT22;13500;52.514;13.462;2022-10-16T08:23:47;17.20;99.90
8655;DHT22;13500;52.514;13.462;2022-10-16T08:26:23;17.10;99.90
8655;DHT22;13500;52.514;13.462;2022-10-16T08:28:51;17.10;99.90
8655;DHT22;13500;52.514;13.462;2022-10-16T08:31:19;17.20;99.90
8655;DHT22;13500;52.514;13.462;2022-10-16T08:33:49;17.50;99.90
8655;DHT22;13500;52.514;13.462;2022-10-16T08:36:18;17.50;99.90
8655;DHT22;13500;52.514;13.462;2022-10-16T08:38:48;17.60;99.90
8655;DHT22;13500;52.514;13.462;2022-10-16T08:44:26;17.60;99.90
8655;DHT22;13500;52.514;13.462;2022-10-16T08:47:02;17.70;99.90
8655;DHT22;13500;52.514;13.462;2022-10-16T08:49:35;17.70;99.90
8655;DHT22;13500;52.514;13.462;2022-10-16T08:52:06;17.80;99.90
8655;DHT22;13500;52.514;13.462;2022-10-16T08:54:42;17.80;99.90
8655;DHT22;13500;52.514;13.462;2022-10-16T08:57:13;17.70;99.90
8655;DHT22;13500;52.514;13.462;2022-10-16T08:59:48;17.70;99.90
8655;DHT22;13500;52.514;13.462;2022-10-16T09:02:24;17.70;99.90
8655;DHT22;13500;52.514;13.462;2022-10-16T09:05:20;17.60;99.90
8655;DHT22;13500;52.514;13.462;2022-10-16T09:07:57;17.60;99.90
8655;DHT22;13500;52.514;13.462;2022-10-16T09:10:39;17.70;99.90
8655;DHT22;13500;52.514;13.462;2022-10-16T09:13:17;18.20;99.90
8655;DHT22;13500;52.514;13.462;2022-10-16T09:15:53;18.60;99.90
8655;DHT22;13500;52.514;13.462;2022-10-16T09:18:27;19.00;99.90
8655;DHT22;13500;52.514;13.462;2022-10-16T09:21:04;19.10;99.90
8655;DHT22;13500;52.514;13.462;2022-10-16T09:23:36;19.00;99.90
8655;DHT22;13500;52.514;13.462;2022-10-16T09:26:05;18.80;99.90
8655;DHT22;13500;52.514;13.462;2022-10-16T09:28:33;18.70;99.90
8655;DHT22;13500;52.514;13.462;2022-10-16T09:31:01;18.70;99.90
8655;DHT22;13500;52.514;13.462;2022-10-16T09:33:33;19.00;99.90
8655;DHT22;13500;52.514;13.462;2022-10-16T09:36:03;19.40;99.90
8655;DHT22;13500;52.514;13.462;2022-10-16T09:38:34;19.80;99.90
8655;DHT22;13500;52.514;13.462;2022-10-16T09:41:17;19.90;99.90
8655;DHT22;13500;52.514;13.462;2022-10-16T09:43:53;19.80;99.90
8655;DHT22;13500;52.514;13.462;2022-10-16T09:46:25;19.90;99.90
8655;DHT22;13500;52.514;13.462;2022-10-16T09:48:56;20.10;99.90
8655;DHT22;13500;52.514;13.462;2022-10-16T09:51:28;20.70;99.90
8655;DHT22;13500;52.514;13.462;2022-10-16T09:53:59;20.70;99.90
8655;DHT22;13500;52.514;13.462;2022-10-16T09:56:28;20.30;99.90
8655;DHT22;13500;52.514;13.462;2022-10-16T09:58:57;19.50;99.90
8655;DHT22;13500;52.514;13.462;2022-10-16T10:01:30;19.30;99.90
8655;DHT22;13500;52.514;13.462;2022-10-16T10:03:59;19.70;99.90
8655;DHT22;13500;52.514;13.462;2022-10-16T10:06:33;20.10;99.90
8655;DHT22;13500;52.514;13.462;2022-10-16T10:09:06;20.60;99.90
8655;DHT22;13500;52.514;13.462;2022-10-16T10:11:46;21.50;99.90
8655;DHT22;13500;52.514;13.462;2022-10-16T10:14:19;21.50;99.90
8655;DHT22;13500;52.514;13.462;2022-10-16T10:16:48;21.50;99.90
8655;DHT22;13500;52.514;13.462;2022-10-16T10:19:17;21.10;99.90
8655;DHT22;13500;52.514;13.462;2022-10-16T10:21:48;20.70;99.90
8655;DHT22;13500;52.514;13.462;2022-10-16T10:24:18;20.40;99.90
8655;DHT22;13500;52.514;13.462;2022-10-16T10:26:51;20.30;99.90
8655;DHT22;13500;52.514;13.462;2022-10-16T10:29:31;20.00;99.90
8655;DHT22;13500;52.514;13.462;2022-10-16T10:32:12;19.70;99.90
8655;DHT22;13500;52.514;13.462;2022-10-16T10:35:04;19.80;99.90
8655;DHT22;13500;52.514;13.462;2022-10-16T10:37:55;19.70;99.90
8655;DHT22;13500;52.514;13.462;2022-10-16T10:40:34;20.00;99.90
8655;DHT22;13500;52.514;13.462;2022-10-16T10:43:10;20.10;99.90
8655;DHT22;13500;52.514;13.462;2022-10-16T10:45:43;19.80;99.90
8655;DHT22;13500;52.514;13.462;2022-10-16T10:48:27;19.90;99.90
8655;DHT22;13500;52.514;13.462;2022-10-16T10:51:01;20.30;99.90
8655;DHT22;13500;52.514;13.462;2022-10-16T10:53:40;21.10;99.90
8655;DHT22;13500;52.514;13.462;2022-10-16T10:56:28;21.10;99.90
8655;DHT22;13500;52.514;13.462;2022-10-16T11:01:56;20.20;99.90
8655;DHT22;13500;52.514;13.462;2022-10-16T11:04:45;19.90;99.90
8655;DHT22;13500;52.514;13.462;2022-10-16T11:07:18;20.50;99.90
8655;DHT22;13500;52.514;13.462;2022-10-16T11:09:52;20.70;99.90
8655;DHT22;13500;52.514;13.462;2022-10-16T11:12:25;21.40;99.90
8655;DHT22;13500;52.514;13.462;2022-10-16T11:15:01;21.90;99.90
8655;DHT22;13500;52.514;13.462;2022-10-16T11:17:35;22.10;99.90
8655;DHT22;13500;52.514;13.462;2022-10-16T11:20:14;22.00;99.90
8655;DHT22;13500;52.514;13.462;2022-10-16T11:22:47;21.60;99.90
8655;DHT22;13500;52.514;13.462;2022-10-16T11:25:22;20.80;99.90
8655;DHT22;13500;52.514;13.462;2022-10-16T11:27:55;20.70;99.90
8655;DHT22;13500;52.514;13.462;2022-10-16T11:30:26;20.50;99.90
8655;DHT22;13500;52.514;13.462;2022-10-16T11:33:05;20.50;99.90
8655;DHT22;13500;52.514;13.462;2022-10-16T11:35:41;20.40;99.90
8655;DHT22;13500;52.514;13.462;2022-10-16T11:38:16;20.30;99.90
8655;DHT22;13500;52.514;13.462;2022-10-16T11:40:50;20.50;99.90
8655;DHT22;13500;52.514;13.462;2022-10-16T11:43:24;20.70;99.90
8655;DHT22;13500;52.514;13.462;2022-10-16T11:45:55;21.00;99.90
8655;DHT22;13500;52.514;13.462;2022-10-16T11:48:28;21.30;99.90
8655;DHT22;13500;52.514;13.462;2022-10-16T11:51:02;21.50;99.90
8655;DHT22;13500;52.514;13.462;2022-10-16T11:53:42;21.60;99.90
8655;DHT22;13500;52.514;13.462;2022-10-16T11:56:15;21.30;99.90
8655;DHT22;13500;52.514;13.462;2022-10-16T11:58:52;21.00;99.90
8655;DHT22;13500;52.514;13.462;2022-10-16T12:01:27;20.70;99.90
8655;DHT22;13500;52.514;13.462;2022-10-16T12:04:07;20.30;99.90
8655;DHT22;13500;52.514;13.462;2022-10-16T12:06:42;20.40;99.90
8655;DHT22;13500;52.514;13.462;2022-10-16T12:09:16;20.40;99.90
8655;DHT22;13500;52.514;13.462;2022-10-16T12:11:48;20.50;99.90
8655;DHT22;13500;52.514;13.462;2022-10-16T12:14:32;20.60;99.90
8655;DHT22;13500;52.514;13.462;2022-10-16T12:17:27;20.50;99.90
8655;DHT22;13500;52.514;13.462;2022-10-16T12:20:21;20.50;99.90
8655;DHT22;13500;52.514;13.462;2022-10-16T12:22:52;20.80;99.90
8655;DHT22;13500;52.514;13.462;2022-10-16T12:25:25;21.00;99.90
8655;DHT22;13500;52.514;13.462;2022-10-16T12:27:58;21.40;99.90
8655;DHT22;13500;52.514;13.462;2022-10-16T12:30:28;21.80;99.90
8655;DHT22;13500;52.514;13.462;2022-10-16T12:33:03;22.00;99.90
8655;DHT22;13500;52.514;13.462;2022-10-16T12:35:33;22.10;99.90
8655;DHT22;13500;52.514;13.462;2022-10-16T12:38:07;22.10;99.90
8655;DHT22;13500;52.514;13.462;2022-10-16T12:40:37;21.90;99.90
8655;DHT22;13500;52.514;13.462;2022-10-16T12:43:35;22.00;99.90
8655;DHT22;13500;52.514;13.462;2022-10-16T12:46:19;21.90;99.90
8655;DHT22;13500;52.514;13.462;2022-10-16T12:48:48;21.90;99.90
8655;DHT22;13500;52.514;13.462;2022-10-16T12:51:35;21.70;99.90
8655;DHT22;13500;52.514;13.462;2022-10-16T12:54:09;21.80;99.90
8655;DHT22;13500;52.514;13.462;2022-10-16T12:56:47;21.70;99.90
8655;DHT22;13500;52.514;13.462;2022-10-16T12:59:28;22.20;99.90
8655;DHT22;13500;52.514;13.462;2022-10-16T13:02:23;22.50;99.90
8655;DHT22;13500;52.514;13.462;2022-10-16T13:05:12;22.40;99.90
8655;DHT22;13500;52.514;13.462;2022-10-16T13:07:56;22.40;99.90
8655;DHT22;13500;52.514;13.462;2022-10-16T13:10:32;22.60;99.90
8655;DHT22;13500;52.514;13.462;2022-10-16T13:13:31;22.80;99.90
8655;DHT22;13500;52.514;13.462;2022-10-16T13:16:11;22.70;99.90
8655;DHT22;13500;52.514;13.462;2022-10-16T13:18:49;22.80;99.90
8655;DHT22;13500;52.514;13.462;2022-10-16T13:21:31;23.10;99.90
8655;DHT22;13500;52.514;13.462;2022-10-16T13:24:10;23.20;99.90
8655;DHT22;13500;52.514;13.462;2022-10-16T13:26:45;23.30;99.90
8655;DHT22;13500;52.514;13.462;2022-10-16T13:29:14;23.30;99.90
8655;DHT22;13500;52.514;13.462;2022-10-16T13:31:44;23.40;99.90
8655;DHT22;13500;52.514;13.462;2022-10-16T13:34:15;23.30;99.90
8655;DHT22;13500;52.514;13.462;2022-10-16T13:36:46;22.90;99.90
8655;DHT22;13500;52.514;13.462;2022-10-16T13:39:22;22.80;99.90
8655;DHT22;13500;52.514;13.462;2022-10-16T13:42:12;22.90;99.90
8655;DHT22;13500;52.514;13.462;2022-10-16T13:44:43;22.60;99.90
8655;DHT22;13500;52.514;13.462;2022-10-16T13:47:17;22.40;99.90
8655;DHT22;13500;52.514;13.462;2022-10-16T13:49:46;22.30;99.90
8655;DHT22;13500;52.514;13.462;2022-10-16T13:52:18;22.10;99.90
8655;DHT22;13500;52.514;13.462;2022-10-16T13:54:47;22.00;99.90
8655;DHT22;13500;52.514;13.462;2022-10-16T13:57:16;22.20;99.90
8655;DHT22;13500;52.514;13.462;2022-10-16T13:59:54;21.90;99.90
8655;DHT22;13500;52.514;13.462;2022-10-16T14:02:26;21.80;99.90
8655;DHT22;13500;52.514;13.462;2022-10-16T14:04:55;21.80;99.90
8655;DHT22;13500;52.514;13.462;2022-10-16T14:07:26;21.60;99.90
8655;DHT22;13500;52.514;13.462;2022-10-16T14:09:56;21.50;99.90
8655;DHT22;13500;52.514;13.462;2022-10-16T14:12:25;21.30;99.90
8655;DHT22;13500;52.514;13.462;2022-10-16T14:14:55;21.10;99.90
8655;DHT22;13500;52.514;13.462;2022-10-16T14:17:27;21.20;99.90
8655;DHT22;13500;52.514;13.462;2022-10-16T14:19:56;21.20;99.90
8655;DHT22;13500;52.514;13.462;2022-10-16T14:22:32;21.20;99.90
8655;DHT22;13500;52.514;13.462;2022-10-16T14:25:01;21.30;99.90
8655;DHT22;13500;52.514;13.462;2022-10-16T14:27:33;21.30;99.90
8655;DHT22;13500;52.514;13.462;2022-10-16T14:30:16;21.30;99.90
8655;DHT22;13500;52.514;13.462;2022-10-16T14:32:55;21.10;99.90
8655;DHT22;13500;52.514;13.462;2022-10-16T14:35:26;20.90;99.90
8655;DHT22;13500;52.514;13.462;2022-10-16T14:37:55;20.90;99.90
8655;DHT22;13500;52.514;13.462;2022-10-16T14:40:26;21.10;99.90
8655;DHT22;13500;52.514;13.462;2022-10-16T14:42:54;21.20;99.90
8655;DHT22;13500;52.514;13.462;2022-10-16T14:45:26;21.20;99.90
8655;DHT22;13500;52.514;13.462;2022-10-16T14:47:57;21.20;99.90
8655;DHT22;13500;52.514;13.462;2022-10-16T14:50:26;21.10;99.90
8655;DHT22;13500;52.514;13.462;2022-10-16T14:52:54;21.10;99.90
8655;DHT22;13500;52.514;13.462;2022-10-16T14:55:22;21.00;99.90
8655;DHT22;13500;52.514;13.462;2022-10-16T14:57:51;21.00;99.90
8655;DHT22;13500;52.514;13.462;2022-10-16T15:00:25;20.90;99.90
8655;DHT22;13500;52.514;13.462;2022-10-16T15:02:53;20.70;99.90
8655;DHT22;13500;52.514;13.462;2022-10-16T15:05:24;20.50;99.90
8655;DHT22;13500;52.514;13.462;2022-10-16T15:07:53;20.50;99.90
8655;DHT22;13500;52.514;13.462;2022-10-16T15:10:22;20.40;99.90
8655;DHT22;13500;52.514;13.462;2022-10-16T15:12:51;20.30;99.90
8655;DHT22;13500;52.514;13.462;2022-10-16T15:15:26;20.30;99.90
8655;DHT22;13500;52.514;13.462;2022-10-16T15:17:56;20.10;99.90
8655;DHT22;13500;52.514;13.462;2022-10-16T15:20:30;20.10;99.90
8655;DHT22;13500;52.514;13.462;2022-10-16T15:23:01;20.00;99.90
8655;DHT22;13500;52.514;13.462;2022-10-16T15:25:35;19.90;99.90
8655;DHT22;13500;52.514;13.462;2022-10-16T15:28:04;19.90;99.90
8655;DHT22;13500;52.514;13.462;2022-10-16T15:30:32;19.80;99.90
8655;DHT22;13500;52.514;13.462;2022-10-16T15:33:00;19.80;99.90
8655;DHT22;13500;52.514;13.462;2022-10-16T15:35:29;19.70;99.90
8655;DHT22;13500;52.514;13.462;2022-10-16T15:37:57;19.60;99.90
8655;DHT22;13500;52.514;13.462;2022-10-16T15:40:25;19.60;99.90
8655;DHT22;13500;52.514;13.462;2022-10-16T15:42:53;19.50;99.90
8655;DHT22;13500;52.514;13.462;2022-10-16T15:45:21;19.50;99.90
8655;DHT22;13500;52.514;13.462;2022-10-16T15:47:49;19.40;99.90
8655;DHT22;13500;52.514;13.462;2022-10-16T15:50:17;19.40;99.90
8655;DHT22;13500;52.514;13.462;2022-10-16T15:52:47;19.30;99.90
8655;DHT22;13500;52.514;13.462;2022-10-16T15:55:15;19.30;99.90
8655;DHT22;13500;52.514;13.462;2022-10-16T15:57:44;19.20;99.90
8655;DHT22;13500;52.514;13.462;2022-10-16T16:00:14;19.10;99.90
8655;DHT22;13500;52.514;13.462;2022-10-16T16:02:42;19.10;99.90
8655;DHT22;13500;52.514;13.462;2022-10-16T16:05:11;19.10;99.90